createdAt,value
2018-06-28T00:00:49.814Z,19.28
2018-06-28T00:01:49.839Z,19.40
2018-06-28T00:02:49.857Z,19.33
2018-06-28T00:03:49.873Z,19.40
2018-06-28T00:04:49.885Z,19.39
2018-06-28T00:05:49.909Z,19.40
2018-06-28T00:06:49.923Z,19.39
2018-06-28T00:07:49.935Z,19.48
2018-06-28T00:08:50.024Z,19.37
2018-06-28T00:09:49.975Z,19.29
2018-06-28T00:10:49.995Z,19.25
2018-06-28T00:11:50.009Z,19.31
2018-06-28T00:13:50.040Z,19.31
2018-06-28T00:14:50.063Z,19.21
2018-06-28T00:15:50.079Z,19.25
2018-06-28T00:16:50.099Z,19.23
2018-06-28T00:17:50.111Z,19.32
2018-06-28T00:18:50.202Z,19.32
2018-06-28T00:19:50.149Z,19.29
2018-06-28T00:20:50.167Z,19.32
2018-06-28T00:21:50.180Z,19.28
2018-06-28T00:22:50.196Z,19.29
2018-06-28T00:23:50.213Z,19.31
2018-06-28T00:24:50.236Z,19.23
2018-06-28T00:25:50.251Z,19.22
2018-06-28T00:26:50.273Z,19.19
2018-06-28T00:27:50.284Z,19.23
2018-06-28T00:28:50.356Z,19.26
2018-06-28T00:29:50.322Z,19.23
2018-06-28T00:30:50.339Z,19.23
2018-06-28T00:31:50.356Z,19.22
2018-06-28T00:32:50.370Z,19.25
2018-06-28T00:33:50.415Z,19.23
2018-06-28T00:34:50.455Z,19.26
2018-06-28T00:35:50.425Z,19.26
2018-06-28T00:36:50.438Z,19.32
2018-06-28T00:37:50.459Z,19.31
2018-06-28T00:38:50.472Z,19.32
2018-06-28T00:39:50.494Z,19.25
2018-06-28T00:40:50.512Z,19.19
2018-06-28T00:41:50.530Z,19.23
2018-06-28T00:42:50.543Z,19.28
2018-06-28T00:43:50.571Z,19.23
2018-06-28T00:44:50.577Z,19.26
2018-06-28T00:45:50.594Z,19.33
2018-06-28T00:46:50.667Z,19.39
2018-06-28T00:47:50.627Z,19.39
2018-06-28T00:48:50.643Z,19.23
2018-06-28T00:49:50.697Z,19.28
2018-06-28T00:50:50.678Z,19.26
2018-06-28T00:51:50.696Z,19.25
2018-06-28T00:52:50.722Z,19.23
2018-06-28T00:53:50.736Z,19.29
2018-06-28T00:54:50.749Z,19.22
2018-06-28T00:55:50.762Z,19.18
2018-06-28T00:56:50.790Z,19.22
2018-06-28T00:57:50.801Z,19.25
2018-06-28T00:58:50.817Z,19.32
2018-06-28T00:59:50.829Z,19.23
2018-06-28T01:00:50.849Z,19.22
2018-06-28T01:01:50.943Z,19.18
2018-06-28T01:02:50.888Z,19.18
2018-06-28T01:03:50.902Z,19.18
2018-06-28T01:04:50.921Z,19.23
2018-06-28T01:05:50.936Z,19.16
2018-06-28T01:06:50.960Z,19.26
2018-06-28T01:07:51.043Z,19.28
2018-06-28T01:08:50.998Z,19.36
2018-06-28T01:09:51.010Z,19.39
2018-06-28T01:10:51.032Z,19.39
2018-06-28T01:11:51.047Z,19.41
2018-06-28T01:12:51.060Z,19.37
2018-06-28T01:13:51.095Z,19.41
2018-06-28T01:14:51.099Z,19.37
2018-06-28T01:15:51.116Z,19.39
2018-06-28T01:16:51.127Z,19.23
2018-06-28T01:17:51.149Z,19.44
2018-06-28T01:18:51.161Z,19.29
2018-06-28T01:19:51.185Z,19.25
2018-06-28T01:20:51.209Z,19.26
2018-06-28T01:21:51.218Z,19.23
2018-06-28T01:22:51.238Z,19.32
2018-06-28T01:23:51.252Z,19.31
2018-06-28T01:24:51.271Z,19.37
2018-06-28T01:25:51.288Z,19.25
2018-06-28T01:26:51.311Z,19.33
2018-06-28T01:27:51.315Z,19.28
2018-06-28T01:28:51.388Z,19.25
2018-06-28T01:29:51.355Z,19.37
2018-06-28T01:30:51.377Z,19.33
2018-06-28T01:31:51.389Z,19.39
2018-06-28T01:32:51.439Z,19.32
2018-06-28T01:33:51.422Z,19.36
2018-06-28T01:34:51.441Z,19.29
2018-06-28T01:35:51.463Z,19.31
2018-06-28T01:36:51.480Z,19.23
2018-06-28T01:37:51.495Z,19.23
2018-06-28T01:38:51.583Z,19.29
2018-06-28T01:39:51.528Z,19.26
2018-06-28T01:40:51.602Z,19.29
2018-06-28T01:41:51.562Z,19.28
2018-06-28T01:42:51.579Z,19.19
2018-06-28T01:43:51.595Z,19.18
2018-06-28T01:44:51.615Z,19.23
2018-06-28T01:45:51.642Z,19.21
2018-06-28T01:46:51.656Z,19.29
2018-06-28T01:47:51.680Z,19.23
2018-06-28T01:48:51.687Z,19.31
2018-06-28T01:49:51.698Z,19.16
2018-06-28T01:50:51.789Z,19.23
2018-06-28T01:51:51.737Z,19.14
2018-06-28T01:52:51.766Z,19.18
2018-06-28T01:53:51.782Z,19.26
2018-06-28T01:54:51.794Z,19.19
2018-06-28T01:55:51.808Z,19.21
2018-06-28T01:56:51.820Z,19.21
2018-06-28T01:57:51.843Z,19.23
2018-06-28T01:58:51.861Z,19.21
2018-06-28T01:59:51.871Z,19.22
2018-06-28T02:00:51.892Z,19.18
2018-06-28T02:01:51.909Z,19.25
2018-06-28T02:02:51.922Z,19.32
2018-06-28T02:03:51.939Z,19.29
2018-06-28T02:04:51.963Z,19.31
2018-06-28T02:05:51.979Z,19.22
2018-06-28T02:06:52.002Z,19.28
2018-06-28T02:07:52.009Z,19.07
2018-06-28T02:08:52.029Z,19.14
2018-06-28T02:09:52.079Z,19.10
2018-06-28T02:10:52.061Z,19.18
2018-06-28T02:11:52.076Z,19.19
2018-06-28T02:12:52.098Z,19.14
2018-06-28T02:13:52.119Z,19.13
2018-06-28T02:14:52.138Z,19.08
2018-06-28T02:15:52.199Z,19.10
2018-06-28T02:16:52.169Z,19.10
2018-06-28T02:17:52.190Z,19.07
2018-06-28T02:18:52.252Z,19.02
2018-06-28T02:19:52.224Z,19.06
2018-06-28T02:20:52.236Z,19.00
2018-06-28T02:21:52.304Z,19.02
2018-06-28T02:22:52.271Z,19.00
2018-06-28T02:23:52.291Z,19.02
2018-06-28T02:24:52.309Z,18.98
2018-06-28T02:25:52.321Z,18.99
2018-06-28T02:26:52.336Z,19.06
2018-06-28T02:27:52.363Z,19.02
2018-06-28T02:28:52.376Z,19.10
2018-06-28T02:29:52.390Z,19.18
2018-06-28T02:30:52.416Z,19.11
2018-06-28T02:31:52.426Z,19.22
2018-06-28T02:32:52.447Z,19.18
2018-06-28T02:33:52.471Z,19.18
2018-06-28T02:34:52.481Z,19.13
2018-06-28T02:35:52.492Z,19.13
2018-06-28T02:36:52.508Z,19.21
2018-06-28T02:37:52.551Z,19.14
2018-06-28T02:38:52.557Z,19.13
2018-06-28T02:39:52.568Z,19.13
2018-06-28T02:40:52.585Z,19.07
2018-06-28T02:41:52.594Z,19.13
2018-06-28T02:42:52.617Z,19.06
2018-06-28T02:43:52.633Z,19.00
2018-06-28T02:44:52.650Z,18.99
2018-06-28T02:45:52.665Z,19.06
2018-06-28T02:46:52.689Z,18.95
2018-06-28T02:47:52.701Z,19.00
2018-06-28T02:48:52.720Z,18.99
2018-06-28T02:49:52.740Z,19.10
2018-06-28T02:50:52.758Z,19.10
2018-06-28T02:51:52.825Z,19.07
2018-06-28T02:52:52.788Z,19.06
2018-06-28T02:53:52.802Z,18.99
2018-06-28T02:54:52.825Z,19.06
2018-06-28T02:55:52.839Z,19.08
2018-06-28T02:56:52.856Z,19.06
2018-06-28T02:57:52.870Z,19.04
2018-06-28T02:58:52.974Z,18.92
2018-06-28T02:59:52.905Z,18.87
2018-06-28T03:00:52.927Z,18.94
2018-06-28T03:01:52.941Z,18.88
2018-06-28T03:02:52.960Z,18.90
2018-06-28T03:03:56.987Z,19.00
2018-06-28T03:04:53.015Z,19.00
2018-06-28T03:05:53.009Z,19.00
2018-06-28T03:06:53.029Z,19.06
2018-06-28T03:07:53.050Z,19.04
2018-06-28T03:08:53.060Z,19.10
2018-06-28T03:09:53.178Z,19.08
2018-06-28T03:10:53.107Z,18.99
2018-06-28T03:11:53.120Z,19.13
2018-06-28T03:12:53.136Z,19.07
2018-06-28T03:13:53.147Z,19.14
2018-06-28T03:14:53.172Z,19.04
2018-06-28T03:15:53.185Z,18.95
2018-06-28T03:16:53.200Z,18.98
2018-06-28T03:17:53.238Z,19.14
2018-06-28T03:18:53.238Z,19.07
2018-06-28T03:19:53.258Z,18.99
2018-06-28T03:20:53.276Z,19.07
2018-06-28T03:21:53.285Z,19.08
2018-06-28T03:22:53.329Z,19.13
2018-06-28T03:23:53.324Z,19.08
2018-06-28T03:24:53.340Z,19.14
2018-06-28T03:25:53.353Z,19.11
2018-06-28T03:26:53.401Z,19.08
2018-06-28T03:27:53.387Z,18.98
2018-06-28T03:28:53.406Z,19.04
2018-06-28T03:29:53.423Z,18.99
2018-06-28T03:30:53.447Z,18.90
2018-06-28T03:31:53.464Z,18.94
2018-06-28T03:32:53.480Z,19.00
2018-06-28T03:33:53.498Z,18.98
2018-06-28T03:34:53.511Z,18.99
2018-06-28T03:35:53.525Z,18.90
2018-06-28T03:36:53.549Z,18.87
2018-06-28T03:37:53.665Z,18.87
2018-06-28T03:38:53.577Z,18.87
2018-06-28T03:39:53.607Z,18.91
2018-06-28T03:40:53.611Z,18.91
2018-06-28T03:41:53.669Z,18.82
2018-06-28T03:42:53.649Z,18.80
2018-06-28T03:43:53.673Z,18.73
2018-06-28T03:44:53.682Z,18.73
2018-06-28T03:45:53.740Z,18.72
2018-06-28T03:46:53.717Z,18.81
2018-06-28T03:47:53.813Z,18.76
2018-06-28T03:48:53.750Z,18.84
2018-06-28T03:49:53.773Z,18.87
2018-06-28T03:50:53.788Z,18.75
2018-06-28T03:51:53.801Z,18.85
2018-06-28T03:52:53.823Z,18.80
2018-06-28T03:53:53.894Z,18.75
2018-06-28T03:54:53.855Z,18.75
2018-06-28T03:55:53.869Z,18.80
2018-06-28T03:56:53.943Z,18.88
2018-06-28T03:57:53.907Z,18.88
2018-06-28T03:58:53.922Z,18.90
2018-06-28T03:59:53.940Z,18.90
2018-06-28T04:00:53.960Z,18.90
2018-06-28T04:01:53.971Z,18.92
2018-06-28T04:02:53.991Z,18.76
2018-06-28T04:03:54.008Z,18.88
2018-06-28T04:04:54.027Z,18.94
2018-06-28T04:05:54.047Z,18.90
2018-06-28T04:06:54.064Z,18.99
2018-06-28T04:07:54.074Z,19.00
2018-06-28T04:08:54.093Z,18.98
2018-06-28T04:09:54.111Z,18.94
2018-06-28T04:10:54.133Z,18.94
2018-06-28T04:11:54.145Z,18.80
2018-06-28T04:12:54.165Z,18.72
2018-06-28T04:13:54.181Z,18.75
2018-06-28T04:14:54.200Z,18.81
2018-06-28T04:15:54.222Z,18.84
2018-06-28T04:16:54.237Z,18.81
2018-06-28T04:17:54.251Z,18.87
2018-06-28T04:18:54.271Z,18.84
2018-06-28T04:19:54.283Z,18.88
2018-06-28T04:20:54.302Z,18.87
2018-06-28T04:21:54.321Z,18.84
2018-06-28T04:22:54.334Z,18.80
2018-06-28T04:23:54.351Z,18.67
2018-06-28T04:24:54.372Z,18.84
2018-06-28T04:25:54.389Z,18.75
2018-06-28T04:26:54.402Z,18.76
2018-06-28T04:27:54.422Z,18.78
2018-06-28T04:28:54.455Z,18.84
2018-06-28T04:29:54.455Z,18.81
2018-06-28T04:30:54.477Z,18.80
2018-06-28T04:31:54.489Z,18.81
2018-06-28T04:32:54.510Z,18.81
2018-06-28T04:33:54.531Z,18.85
2018-06-28T04:34:54.548Z,18.90
2018-06-28T04:35:54.558Z,18.84
2018-06-28T04:36:54.650Z,18.81
2018-06-28T04:37:54.592Z,18.87
2018-06-28T04:38:54.614Z,18.81
2018-06-28T04:39:54.636Z,18.82
2018-06-28T04:40:54.668Z,18.82
2018-06-28T04:41:54.663Z,18.80
2018-06-28T04:42:54.681Z,18.81
2018-06-28T04:43:54.696Z,18.80
2018-06-28T04:44:54.716Z,18.80
2018-06-28T04:45:54.732Z,18.75
2018-06-28T04:46:54.749Z,18.80
2018-06-28T04:47:54.763Z,18.80
2018-06-28T04:48:54.788Z,18.72
2018-06-28T04:49:54.828Z,18.81
2018-06-28T04:50:54.818Z,18.78
2018-06-28T04:51:54.833Z,18.85
2018-06-28T04:52:54.855Z,18.78
2018-06-28T04:53:54.899Z,18.75
2018-06-28T04:54:54.885Z,18.78
2018-06-28T04:56:54.920Z,18.82
2018-06-28T04:57:54.940Z,18.82
2018-06-28T04:58:55.008Z,18.75
2018-06-28T04:59:54.968Z,18.80
2018-06-28T05:00:54.989Z,18.72
2018-06-28T05:01:55.005Z,18.82
2018-06-28T05:02:55.027Z,18.80
2018-06-28T05:03:55.038Z,18.81
2018-06-28T05:04:55.061Z,18.72
2018-06-28T05:05:55.072Z,18.76
2018-06-28T05:06:55.091Z,18.80
2018-06-28T05:07:55.109Z,18.66
2018-06-28T05:08:55.125Z,18.70
2018-06-28T05:09:55.141Z,18.80
2018-06-28T05:10:55.158Z,18.73
2018-06-28T05:11:55.175Z,18.76
2018-06-28T05:12:55.193Z,18.82
2018-06-28T05:13:55.211Z,18.70
2018-06-28T05:14:55.229Z,18.72
2018-06-28T05:15:55.247Z,18.69
2018-06-28T05:16:55.258Z,18.73
2018-06-28T05:17:55.283Z,18.73
2018-06-28T05:18:55.484Z,18.84
2018-06-28T05:19:55.313Z,18.78
2018-06-28T05:20:55.328Z,18.75
2018-06-28T05:21:55.346Z,18.80
2018-06-28T05:22:55.400Z,18.81
2018-06-28T05:23:55.386Z,18.80
2018-06-28T05:24:55.401Z,18.87
2018-06-28T05:25:55.412Z,18.87
2018-06-28T05:26:55.434Z,18.84
2018-06-28T05:27:55.446Z,18.87
2018-06-28T05:28:55.470Z,18.94
2018-06-28T05:29:55.487Z,18.92
2018-06-28T05:30:55.537Z,19.00
2018-06-28T05:31:55.518Z,18.98
2018-06-28T05:32:55.537Z,19.08
2018-06-28T05:33:55.556Z,19.10
2018-06-28T05:34:55.658Z,19.13
2018-06-28T05:35:55.593Z,19.07
2018-06-28T05:36:55.601Z,19.08
2018-06-28T05:37:55.626Z,18.98
2018-06-28T05:38:55.636Z,19.07
2018-06-28T05:39:55.659Z,19.06
2018-06-28T05:40:55.674Z,19.08
2018-06-28T05:41:55.692Z,19.07
2018-06-28T05:42:55.705Z,19.13
2018-06-28T05:43:55.727Z,18.99
2018-06-28T05:44:55.852Z,19.04
2018-06-28T05:45:55.763Z,19.00
2018-06-28T05:46:55.775Z,18.99
2018-06-28T05:47:55.791Z,19.02
2018-06-28T05:48:55.814Z,19.00
2018-06-28T05:49:55.824Z,19.00
2018-06-28T05:50:55.844Z,19.06
2018-06-28T05:51:55.858Z,19.00
2018-06-28T05:52:55.880Z,19.07
2018-06-28T05:53:55.900Z,19.02
2018-06-28T05:54:55.912Z,19.06
2018-06-28T05:55:55.927Z,19.08
2018-06-28T05:56:55.945Z,19.07
2018-06-28T05:57:55.968Z,19.14
2018-06-28T05:58:55.983Z,19.16
2018-06-28T05:59:55.999Z,19.11
2018-06-28T06:00:56.019Z,19.06
2018-06-28T06:01:56.068Z,19.16
2018-06-28T06:02:56.046Z,19.11
2018-06-28T06:03:56.065Z,19.25
2018-06-28T06:04:56.080Z,19.29
2018-06-28T06:05:56.098Z,19.28
2018-06-28T06:06:56.121Z,19.31
2018-06-28T06:07:56.138Z,19.39
2018-06-28T06:08:56.153Z,19.44
2018-06-28T06:09:56.178Z,19.47
2018-06-28T06:10:56.185Z,19.48
2018-06-28T06:11:56.260Z,19.40
2018-06-28T06:12:56.235Z,19.46
2018-06-28T06:13:56.235Z,19.46
2018-06-28T06:14:56.253Z,19.41
2018-06-28T06:15:56.269Z,19.44
2018-06-28T06:16:56.295Z,19.36
2018-06-28T06:17:56.304Z,19.48
2018-06-28T06:18:56.396Z,19.37
2018-06-28T06:19:56.340Z,19.37
2018-06-28T06:20:56.363Z,19.47
2018-06-28T06:21:56.378Z,19.56
2018-06-28T06:22:56.393Z,19.50
2018-06-28T06:23:56.418Z,19.48
2018-06-28T06:24:56.428Z,19.59
2018-06-28T06:25:56.442Z,19.50
2018-06-28T06:26:56.548Z,19.48
2018-06-28T06:27:56.479Z,19.50
2018-06-28T06:28:56.494Z,19.63
2018-06-28T06:29:56.543Z,19.65
2018-06-28T06:30:56.532Z,19.65
2018-06-28T06:31:56.545Z,19.73
2018-06-28T06:32:56.562Z,19.63
2018-06-28T06:33:56.585Z,19.78
2018-06-28T06:34:56.599Z,19.77
2018-06-28T06:35:56.616Z,19.76
2018-06-28T06:36:56.634Z,19.77
2018-06-28T06:37:56.652Z,19.78
2018-06-28T06:38:56.671Z,19.78
2018-06-28T06:39:56.795Z,19.84
2018-06-28T06:40:56.706Z,19.95
2018-06-28T06:41:56.718Z,19.95
2018-06-28T06:42:56.739Z,19.95
2018-06-28T06:43:56.845Z,20.01
2018-06-28T06:44:56.775Z,20.05
2018-06-28T06:45:56.863Z,20.06
2018-06-28T06:46:56.813Z,20.20
2018-06-28T06:47:56.822Z,20.31
2018-06-28T06:48:56.842Z,20.24
2018-06-28T06:49:56.860Z,20.28
2018-06-28T06:50:56.876Z,20.33
2018-06-28T06:51:56.907Z,20.36
2018-06-28T06:52:56.912Z,20.38
2018-06-28T06:53:56.935Z,20.32
2018-06-28T06:54:56.954Z,20.20
2018-06-28T06:55:56.968Z,20.29
2018-06-28T06:56:56.983Z,20.38
2018-06-28T06:57:57.015Z,20.29
2018-06-28T06:58:57.025Z,20.24
2018-06-28T06:59:57.040Z,20.20
2018-06-28T07:00:57.062Z,20.16
2018-06-28T07:01:57.080Z,20.24
2018-06-28T07:02:57.096Z,20.31
2018-06-28T07:03:57.119Z,20.11
2018-06-28T07:04:57.124Z,20.06
2018-06-28T07:05:57.140Z,20.21
2018-06-28T07:06:57.159Z,20.26
2018-06-28T07:07:57.176Z,20.39
2018-06-28T07:08:57.192Z,20.36
2018-06-28T07:09:57.216Z,20.42
2018-06-28T07:10:57.230Z,20.35
2018-06-28T07:11:57.253Z,20.48
2018-06-28T07:12:57.262Z,20.38
2018-06-28T07:13:57.288Z,20.39
2018-06-28T07:14:57.303Z,20.58
2018-06-28T07:15:57.329Z,20.59
2018-06-28T07:16:57.339Z,20.57
2018-06-28T07:17:57.361Z,20.67
2018-06-28T07:18:57.376Z,20.72
2018-06-28T07:19:57.390Z,20.95
2018-06-28T07:20:57.410Z,21.01
2018-06-28T07:21:57.429Z,21.03
2018-06-28T07:22:57.479Z,20.92
2018-06-28T07:23:57.462Z,20.98
2018-06-28T07:24:57.493Z,20.94
2018-06-28T07:25:57.493Z,20.89
2018-06-28T07:26:57.518Z,20.87
2018-06-28T07:27:57.621Z,20.99
2018-06-28T07:28:57.569Z,21.01
2018-06-28T07:29:57.572Z,21.13
2018-06-28T07:30:57.587Z,20.97
2018-06-28T07:31:57.605Z,20.97
2018-06-28T07:32:57.660Z,20.92
2018-06-28T07:33:57.658Z,21.10
2018-06-28T07:34:57.672Z,21.28
2018-06-28T07:35:57.680Z,21.29
2018-06-28T07:36:57.696Z,21.43
2018-06-28T07:37:57.714Z,21.49
2018-06-28T07:38:57.732Z,21.64
2018-06-28T07:39:57.745Z,21.61
2018-06-28T07:40:57.766Z,21.67
2018-06-28T07:41:57.788Z,21.64
2018-06-28T07:42:57.805Z,21.82
2018-06-28T07:43:57.824Z,21.69
2018-06-28T07:44:57.845Z,21.67
2018-06-28T07:45:57.858Z,21.52
2018-06-28T07:46:57.932Z,21.59
2018-06-28T07:47:57.898Z,21.59
2018-06-28T07:48:57.914Z,21.80
2018-06-28T07:49:57.936Z,21.91
2018-06-28T07:50:57.954Z,22.05
2018-06-28T07:51:57.972Z,22.15
2018-06-28T07:52:57.991Z,22.18
2018-06-28T07:53:58.006Z,22.03
2018-06-28T07:54:58.037Z,21.64
2018-06-28T07:55:58.047Z,21.59
2018-06-28T07:56:58.057Z,21.42
2018-06-28T07:57:58.083Z,21.59
2018-06-28T07:58:58.101Z,21.61
2018-06-28T07:59:58.202Z,21.50
2018-06-28T08:00:58.140Z,21.24
2018-06-28T08:01:58.157Z,21.24
2018-06-28T08:02:58.171Z,21.35
2018-06-28T08:03:58.186Z,21.40
2018-06-28T08:04:58.210Z,21.62
2018-06-28T08:05:58.327Z,21.52
2018-06-28T08:06:58.243Z,21.53
2018-06-28T08:07:58.259Z,21.72
2018-06-28T08:08:58.281Z,21.82
2018-06-28T08:09:58.295Z,21.77
2018-06-28T08:10:58.317Z,21.84
2018-06-28T08:11:58.337Z,21.90
2018-06-28T08:12:58.357Z,21.98
2018-06-28T08:13:58.387Z,22.05
2018-06-28T08:14:58.396Z,22.21
2018-06-28T08:15:58.410Z,22.40
2018-06-28T08:16:58.473Z,22.27
2018-06-28T08:17:58.533Z,22.31
2018-06-28T08:18:58.466Z,22.40
2018-06-28T08:19:58.483Z,22.49
2018-06-28T08:20:58.505Z,22.55
2018-06-28T08:21:58.521Z,22.65
2018-06-28T08:22:58.539Z,22.83
2018-06-28T08:23:58.590Z,22.70
2018-06-28T08:24:58.579Z,22.54
2018-06-28T08:25:58.602Z,22.79
2018-06-28T08:26:58.682Z,22.85
2018-06-28T08:27:58.632Z,22.90
2018-06-28T08:28:58.659Z,23.07
2018-06-28T08:29:58.672Z,23.17
2018-06-28T08:30:58.689Z,23.32
2018-06-28T08:31:58.707Z,23.10
2018-06-28T08:32:58.726Z,23.19
2018-06-28T08:33:58.746Z,22.98
2018-06-28T08:34:58.765Z,22.76
2018-06-28T08:35:58.927Z,22.76
2018-06-28T08:36:58.801Z,22.68
2018-06-28T08:37:58.827Z,22.94
2018-06-28T08:38:58.838Z,22.86
2018-06-28T08:39:58.856Z,22.85
2018-06-28T08:40:58.876Z,23.02
2018-06-28T08:41:58.910Z,23.04
2018-06-28T08:42:58.915Z,23.04
2018-06-28T08:43:58.939Z,23.17
2018-06-28T08:44:58.953Z,23.17
2018-06-28T08:45:58.979Z,23.19
2018-06-28T08:46:58.997Z,23.42
2018-06-28T08:47:59.034Z,23.43
2018-06-28T08:48:59.091Z,23.35
2018-06-28T08:49:59.150Z,23.39
2018-06-28T08:50:59.070Z,23.61
2018-06-28T08:51:59.140Z,23.48
2018-06-28T08:52:59.104Z,23.46
2018-06-28T08:53:59.149Z,23.25
2018-06-28T08:54:59.146Z,23.31
2018-06-28T08:55:59.167Z,22.95
2018-06-28T08:56:59.190Z,22.88
2018-06-28T08:57:59.320Z,22.79
2018-06-28T08:58:59.226Z,23.00
2018-06-28T08:59:59.255Z,22.79
2018-06-28T09:00:59.259Z,23.01
2018-06-28T09:01:59.281Z,22.94
2018-06-28T09:02:59.301Z,22.65
2018-06-28T09:03:59.320Z,22.80
2018-06-28T09:04:59.338Z,22.94
2018-06-28T09:05:59.357Z,23.19
2018-06-28T09:06:59.380Z,23.31
2018-06-28T09:07:59.402Z,23.50
2018-06-28T09:08:59.418Z,23.28
2018-06-28T09:09:59.484Z,22.94
2018-06-28T09:10:59.460Z,22.97
2018-06-28T09:11:59.473Z,22.80
2018-06-28T09:12:59.495Z,22.97
2018-06-28T09:13:59.518Z,22.92
2018-06-28T09:14:59.537Z,23.12
2018-06-28T09:15:59.552Z,22.98
2018-06-28T09:16:59.573Z,22.85
2018-06-28T09:17:59.592Z,23.01
2018-06-28T09:18:59.622Z,23.07
2018-06-28T09:19:59.632Z,23.19
2018-06-28T09:20:59.650Z,23.19
2018-06-28T09:21:59.722Z,23.19
2018-06-28T09:22:59.769Z,23.36
2018-06-28T09:23:59.712Z,23.51
2018-06-28T09:24:59.726Z,23.50
2018-06-28T09:25:59.749Z,23.57
2018-06-28T09:26:59.767Z,23.25
2018-06-28T09:27:59.837Z,23.42
2018-06-28T09:28:59.808Z,23.43
2018-06-28T09:29:59.825Z,23.73
2018-06-28T09:30:59.912Z,23.73
2018-06-28T09:31:59.865Z,23.88
2018-06-28T09:32:59.878Z,24.08
2018-06-28T09:33:59.905Z,23.88
2018-06-28T09:34:59.922Z,23.65
2018-06-28T09:35:59.940Z,23.68
2018-06-28T09:37:00.009Z,23.54
2018-06-28T09:37:59.977Z,23.70
2018-06-28T09:38:59.994Z,23.85
2018-06-28T09:40:00.067Z,24.15
2018-06-28T09:41:00.035Z,24.24
2018-06-28T09:42:00.056Z,24.28
2018-06-28T09:43:00.132Z,23.95
2018-06-28T09:44:00.101Z,23.75
2018-06-28T09:45:00.118Z,23.75
2018-06-28T09:46:00.138Z,23.88
2018-06-28T09:47:00.159Z,23.87
2018-06-28T09:48:00.176Z,24.20
2018-06-28T09:49:00.286Z,24.55
2018-06-28T09:50:00.215Z,24.62
2018-06-28T09:51:00.239Z,24.81
2018-06-28T09:52:00.308Z,24.83
2018-06-28T09:53:00.277Z,25.03
2018-06-28T09:54:00.292Z,25.10
2018-06-28T09:55:00.315Z,25.10
2018-06-28T09:56:00.338Z,25.02
2018-06-28T09:57:00.351Z,25.15
2018-06-28T09:58:00.422Z,25.40
2018-06-28T09:59:00.400Z,25.28
2018-06-28T10:00:00.414Z,25.50
2018-06-28T10:01:00.433Z,25.32
2018-06-28T10:02:00.455Z,25.52
2018-06-28T10:03:00.481Z,25.28
2018-06-28T10:04:00.497Z,25.21
2018-06-28T10:05:00.523Z,25.25
2018-06-28T10:06:00.539Z,25.35
2018-06-28T10:07:00.554Z,25.65
2018-06-28T10:08:00.575Z,25.36
2018-06-28T10:09:00.619Z,25.47
2018-06-28T10:10:00.669Z,25.75
2018-06-28T10:11:00.642Z,25.92
2018-06-28T10:12:00.659Z,26.18
2018-06-28T10:13:00.677Z,26.35
2018-06-28T10:14:00.706Z,26.45
2018-06-28T10:15:00.721Z,26.92
2018-06-28T10:16:00.739Z,27.04
2018-06-28T10:17:00.760Z,27.13
2018-06-28T10:18:00.786Z,27.10
2018-06-28T10:19:00.803Z,27.25
2018-06-28T10:20:00.830Z,27.82
2018-06-28T10:21:00.847Z,27.55
2018-06-28T10:22:00.869Z,27.37
2018-06-28T10:23:00.894Z,26.91
2018-06-28T10:24:00.932Z,27.34
2018-06-28T10:25:00.973Z,26.99
2018-06-28T10:26:00.989Z,27.18
2018-06-28T10:27:00.972Z,27.37
2018-06-28T10:29:01.026Z,27.97
2018-06-28T10:30:01.045Z,27.93
2018-06-28T10:31:01.120Z,28.03
2018-06-28T10:32:01.086Z,28.14
2018-06-28T10:33:01.112Z,28.43
2018-06-28T10:34:01.184Z,28.25
2018-06-28T10:35:01.151Z,27.78
2018-06-28T10:36:01.168Z,27.65
2018-06-28T10:37:01.200Z,27.57
2018-06-28T10:38:01.295Z,26.95
2018-06-28T10:39:01.269Z,27.06
2018-06-28T10:40:01.310Z,27.41
2018-06-28T10:41:01.447Z,27.28
2018-06-28T10:42:01.301Z,27.14
2018-06-28T10:43:01.338Z,26.92
2018-06-28T10:44:01.368Z,26.62
2018-06-28T10:45:01.375Z,26.72
2018-06-28T10:46:01.431Z,27.04
2018-06-28T10:47:01.414Z,27.22
2018-06-28T10:48:01.450Z,27.32
2018-06-28T10:49:01.473Z,27.49
2018-06-28T10:50:01.590Z,27.31
2018-06-28T10:51:01.510Z,27.34
2018-06-28T10:52:01.531Z,27.55
2018-06-28T10:53:01.551Z,27.87
2018-06-28T10:54:01.611Z,28.14
2018-06-28T10:55:01.597Z,28.51
2018-06-28T10:56:01.650Z,28.62
2018-06-28T10:57:01.655Z,28.43
2018-06-28T10:58:01.660Z,28.18
2018-06-28T10:59:01.683Z,27.66
2018-06-28T11:00:01.698Z,27.85
2018-06-28T11:01:01.720Z,28.02
2018-06-28T11:02:01.750Z,28.02
2018-06-28T11:03:01.768Z,27.94
2018-06-28T11:04:01.796Z,27.55
2018-06-28T11:05:01.816Z,27.06
2018-06-28T11:06:01.836Z,26.80
2018-06-28T11:07:01.858Z,26.99
2018-06-28T11:08:01.879Z,27.25
2018-06-28T11:09:01.909Z,27.36
2018-06-28T11:10:01.979Z,27.55
2018-06-28T11:11:01.948Z,28.03
2018-06-28T11:12:01.970Z,27.88
2018-06-28T11:13:01.994Z,27.97
2018-06-28T11:14:02.123Z,27.85
2018-06-28T11:15:02.039Z,27.65
2018-06-28T11:16:02.109Z,27.97
2018-06-28T11:17:02.086Z,28.11
2018-06-28T11:18:02.100Z,27.36
2018-06-28T11:19:02.126Z,27.44
2018-06-28T11:20:02.193Z,27.43
2018-06-28T11:21:02.178Z,27.92
2018-06-28T11:22:02.247Z,28.09
2018-06-28T11:23:02.215Z,28.21
2018-06-28T11:24:02.233Z,28.44
2018-06-28T11:25:02.265Z,28.24
2018-06-28T11:26:02.286Z,28.59
2018-06-28T11:27:02.307Z,29.26
2018-06-28T11:28:02.376Z,29.02
2018-06-28T11:29:02.352Z,28.21
2018-06-28T11:30:02.376Z,28.54
2018-06-28T11:31:02.396Z,28.93
2018-06-28T11:32:02.419Z,29.34
2018-06-28T11:33:02.436Z,29.43
2018-06-28T11:34:02.510Z,29.55
2018-06-28T11:35:02.491Z,30.23
2018-06-28T11:36:02.516Z,29.85
2018-06-28T11:37:02.537Z,30.05
2018-06-28T11:38:02.610Z,30.26
2018-06-28T11:39:02.581Z,30.22
2018-06-28T11:40:02.653Z,30.23
2018-06-28T11:41:02.625Z,30.31
2018-06-28T11:42:02.642Z,30.89
2018-06-28T11:43:02.674Z,30.60
2018-06-28T11:44:02.696Z,30.24
2018-06-28T11:45:02.755Z,30.88
2018-06-28T11:46:02.793Z,30.92
2018-06-28T11:47:02.767Z,30.47
2018-06-28T11:48:02.789Z,31.06
2018-06-28T11:49:02.861Z,30.43
2018-06-28T11:50:02.834Z,30.26
2018-06-28T11:51:02.896Z,30.82
2018-06-28T11:52:02.885Z,30.65
2018-06-28T11:53:02.912Z,30.55
2018-06-28T11:54:02.936Z,30.47
2018-06-28T11:55:02.954Z,30.27
2018-06-28T11:56:02.983Z,30.47
2018-06-28T11:57:03.096Z,30.51
2018-06-28T11:58:03.033Z,30.73
2018-06-28T11:59:03.059Z,31.12
2018-06-28T12:00:03.074Z,31.28
2018-06-28T12:01:03.103Z,31.54
2018-06-28T12:02:03.134Z,31.81
2018-06-28T12:03:03.215Z,31.80
2018-06-28T12:04:03.177Z,32.07
2018-06-28T12:05:03.203Z,32.52
2018-06-28T12:06:03.224Z,32.15
2018-06-28T12:07:03.253Z,32.03
2018-06-28T12:08:03.272Z,31.62
2018-06-28T12:09:03.296Z,31.78
2018-06-28T12:10:03.325Z,31.39
2018-06-28T12:11:03.348Z,30.16
2018-06-28T12:12:03.374Z,29.70
2018-06-28T12:13:03.401Z,29.46
2018-06-28T12:14:03.420Z,29.36
2018-06-28T12:15:03.504Z,29.14
2018-06-28T12:16:03.471Z,29.09
2018-06-28T12:17:03.499Z,28.96
2018-06-28T12:32:03.848Z,25.82
2018-06-28T12:33:04.019Z,25.90
2018-06-28T12:34:03.896Z,25.92
2018-06-28T12:35:03.918Z,25.85
2018-06-28T12:36:03.941Z,25.85
2018-06-28T12:37:03.959Z,25.72
2018-06-28T12:38:03.983Z,25.64
2018-06-28T12:39:04.071Z,25.42
2018-06-28T12:40:04.027Z,25.02
2018-06-28T12:41:04.049Z,24.85
2018-06-28T12:42:04.067Z,24.91
2018-06-28T12:43:04.089Z,24.96
2018-06-28T12:44:04.112Z,25.08
2018-06-28T12:45:04.191Z,24.91
2018-06-28T12:46:04.164Z,25.02
2018-06-28T12:47:04.187Z,25.06
2018-06-28T12:48:04.201Z,25.13
2018-06-28T12:49:04.219Z,25.08
2018-06-28T12:50:04.239Z,25.28
2018-06-28T12:51:04.321Z,25.18
2018-06-28T12:52:04.292Z,25.24
2018-06-28T12:53:04.305Z,25.27
2018-06-28T12:54:04.344Z,25.15
2018-06-28T12:55:04.349Z,25.10
2018-06-28T12:56:04.374Z,25.18
2018-06-28T12:57:04.434Z,25.10
2018-06-28T12:58:04.406Z,25.17
2018-06-28T12:59:04.429Z,25.17
2018-06-28T13:00:04.509Z,25.38
2018-06-28T13:01:04.465Z,25.54
2018-06-28T13:02:04.490Z,25.46
2018-06-28T13:03:04.518Z,25.60
2018-06-28T13:04:04.533Z,25.79
2018-06-28T13:05:04.546Z,25.79
2018-06-28T13:06:04.575Z,25.97
2018-06-28T13:07:04.624Z,26.18
2018-06-28T13:08:04.613Z,26.17
2018-06-28T13:10:04.654Z,26.73
2018-06-28T13:11:04.683Z,26.51